createdAt,value
2023-02-25T00:01:57.673Z,7.03
2023-02-25T00:04:31.514Z,8.45
2023-02-25T00:06:59.786Z,7.22
2023-02-25T00:09:28.770Z,7.40
2023-02-25T00:11:56.977Z,6.93
2023-02-25T00:14:24.430Z,7.05
2023-02-25T00:16:56.148Z,7.13
2023-02-25T00:19:26.019Z,7.32
2023-02-25T00:21:54.043Z,6.50
2023-02-25T00:24:21.647Z,7.35
2023-02-25T00:26:50.376Z,7.40
2023-02-25T00:29:18.544Z,6.85
2023-02-25T00:31:47.080Z,6.85
2023-02-25T00:34:15.859Z,7.25
2023-02-25T00:36:46.085Z,7.32
2023-02-25T00:39:13.924Z,6.70
2023-02-25T00:41:41.974Z,6.22
2023-02-25T00:44:09.602Z,7.05
2023-02-25T00:49:06.562Z,5.78
2023-02-25T00:51:34.552Z,5.78
2023-02-25T00:54:02.126Z,5.60
2023-02-25T00:56:30.098Z,5.57
2023-02-25T00:59:00.285Z,6.43
2023-02-25T01:01:33.492Z,4.80
2023-02-25T01:04:01.884Z,4.40
2023-02-25T01:06:32.561Z,5.20
2023-02-25T01:09:01.335Z,4.97
2023-02-25T01:11:32.805Z,3.58
2023-02-25T01:14:08.111Z,4.85
2023-02-25T01:16:38.508Z,5.65
2023-02-25T01:19:12.879Z,5.15
2023-02-25T01:21:45.669Z,4.97
2023-02-25T01:24:21.987Z,5.40
2023-02-25T01:26:53.603Z,3.67
2023-02-25T01:29:42.162Z,4.43
2023-02-25T01:32:14.180Z,4.35
2023-02-25T01:34:42.346Z,4.28
2023-02-25T01:37:10.436Z,4.05
2023-02-25T01:39:41.678Z,4.00
2023-02-25T01:42:17.090Z,3.60
2023-02-25T01:45:18.720Z,5.03
2023-02-25T01:47:50.713Z,5.22
2023-02-25T01:50:22.508Z,3.35
2023-02-25T01:52:53.433Z,5.57
2023-02-25T01:55:21.243Z,4.45
2023-02-25T01:57:50.566Z,3.92
2023-02-25T02:00:18.963Z,4.38
2023-02-25T02:02:49.504Z,7.53
2023-02-25T02:05:17.577Z,4.15
2023-02-25T02:07:45.426Z,3.63
2023-02-25T02:10:13.000Z,3.08
2023-02-25T02:12:44.647Z,4.38
2023-02-25T02:15:15.842Z,3.40
2023-02-25T02:18:03.095Z,3.17
2023-02-25T02:21:18.929Z,3.50
2023-02-25T02:24:11.371Z,3.97
2023-02-25T02:26:52.156Z,3.75
2023-02-25T02:29:50.811Z,4.00
2023-02-25T02:32:24.620Z,3.63
2023-02-25T02:34:58.421Z,3.97
2023-02-25T02:38:12.331Z,3.30
2023-02-25T02:41:25.217Z,3.20
2023-02-25T02:44:12.921Z,3.13
2023-02-25T02:47:09.494Z,3.45
2023-02-25T02:49:54.035Z,3.30
2023-02-25T02:52:29.254Z,4.25
2023-02-25T02:55:22.294Z,3.88
2023-02-25T02:58:00.714Z,3.55
2023-02-25T03:00:36.712Z,2.90
2023-02-25T03:03:22.351Z,2.97
2023-02-25T03:05:53.369Z,4.35
2023-02-25T03:08:29.460Z,4.25
2023-02-25T03:10:57.798Z,4.07
2023-02-25T03:13:26.545Z,4.30
2023-02-25T03:15:55.722Z,3.88
2023-02-25T03:21:00.705Z,3.83
2023-02-25T03:23:34.310Z,3.42
2023-02-25T03:26:31.405Z,4.03
2023-02-25T03:29:04.508Z,3.70
2023-02-25T03:31:58.790Z,3.15
2023-02-25T03:34:39.106Z,4.82
2023-02-25T03:37:22.733Z,3.13
2023-02-25T03:39:56.852Z,2.90
2023-02-25T03:42:32.424Z,3.08
2023-02-25T03:45:05.579Z,2.75
2023-02-25T03:47:37.397Z,4.57
2023-02-25T03:50:23.849Z,3.55
2023-02-25T03:52:56.071Z,3.63
2023-02-25T03:55:44.224Z,3.72
2023-02-25T03:58:12.138Z,3.42
2023-02-25T04:00:43.060Z,3.20
2023-02-25T04:03:10.713Z,3.25
2023-02-25T04:05:39.368Z,3.58
2023-02-25T04:08:16.038Z,3.20
2023-02-25T04:10:49.865Z,3.72
2023-02-25T04:13:20.990Z,3.80
2023-02-25T04:15:50.817Z,3.45
2023-02-25T04:18:18.439Z,3.42
2023-02-25T04:20:46.255Z,3.80
2023-02-25T04:23:17.037Z,4.00
2023-02-25T04:25:45.022Z,4.15
2023-02-25T04:28:12.551Z,4.82
2023-02-25T04:30:40.542Z,4.60
2023-02-25T04:33:09.662Z,3.17
2023-02-25T04:38:07.388Z,3.35
2023-02-25T04:40:37.739Z,3.85
2023-02-25T04:43:05.287Z,3.50
2023-02-25T04:45:33.113Z,4.13
2023-02-25T04:48:00.764Z,4.07
2023-02-25T04:50:28.807Z,4.13
2023-02-25T04:52:56.370Z,4.32
2023-02-25T04:55:24.327Z,4.53
2023-02-25T04:57:51.856Z,4.07
2023-02-25T05:00:24.375Z,4.18
2023-02-25T05:02:52.293Z,4.65
2023-02-25T05:05:20.300Z,4.18
2023-02-25T05:07:48.222Z,4.85
2023-02-25T05:10:16.437Z,4.40
2023-02-25T05:12:44.155Z,4.13
2023-02-25T05:15:12.817Z,4.45
2023-02-25T05:17:40.401Z,5.35
2023-02-25T05:20:12.237Z,6.78
2023-02-25T05:22:41.584Z,6.72
2023-02-25T05:25:10.479Z,5.60
2023-02-25T05:27:38.121Z,6.13
2023-02-25T05:30:06.946Z,6.43
2023-02-25T05:32:34.764Z,6.50
2023-02-25T05:35:02.850Z,5.55
2023-02-25T05:37:32.511Z,4.93
2023-02-25T05:40:01.393Z,5.10
2023-02-25T05:42:29.545Z,4.80
2023-02-25T05:44:57.392Z,5.53
2023-02-25T05:47:24.967Z,4.93
2023-02-25T05:49:52.947Z,5.72
2023-02-25T05:52:20.641Z,3.40
2023-02-25T05:54:48.531Z,4.05
2023-02-25T05:57:16.384Z,4.95
2023-02-25T05:59:44.332Z,4.03
2023-02-25T06:02:11.933Z,2.85
2023-02-25T06:04:39.933Z,5.13
2023-02-25T06:07:08.151Z,5.88
2023-02-25T06:09:37.520Z,6.73
2023-02-25T06:12:05.605Z,7.25
2023-02-25T06:14:33.529Z,7.70
2023-02-25T06:17:02.273Z,8.13
2023-02-25T06:19:30.543Z,8.90
2023-02-25T06:21:58.198Z,7.78
2023-02-25T06:24:26.064Z,7.93
2023-02-25T06:26:53.542Z,8.88
2023-02-25T06:29:21.354Z,8.15
2023-02-25T06:31:48.950Z,8.75
2023-02-25T06:34:16.934Z,8.48
2023-02-25T06:36:44.676Z,8.73
2023-02-25T06:39:13.443Z,8.50
2023-02-25T06:41:41.169Z,7.50
2023-02-25T06:44:09.317Z,8.77
2023-02-25T06:46:37.006Z,7.43
2023-02-25T06:49:04.890Z,6.85
2023-02-25T06:51:32.758Z,6.63
2023-02-25T06:54:03.527Z,7.05
2023-02-25T06:56:31.400Z,6.97
2023-02-25T06:58:59.577Z,6.82
2023-02-25T07:01:27.592Z,7.10
2023-02-25T07:03:55.593Z,6.65
2023-02-25T07:06:23.384Z,7.03
2023-02-25T07:08:51.402Z,7.18
2023-02-25T07:11:18.815Z,6.60
2023-02-25T07:13:50.388Z,6.25
2023-02-25T07:16:18.597Z,7.15
2023-02-25T07:18:47.181Z,6.07
2023-02-25T07:21:16.124Z,4.57
2023-02-25T07:23:44.453Z,5.15
2023-02-25T07:26:13.824Z,5.88
2023-02-25T07:28:42.083Z,5.60
2023-02-25T07:31:19.423Z,5.03
2023-02-25T07:33:48.116Z,5.38
2023-02-25T07:36:17.162Z,5.93
2023-02-25T07:41:15.913Z,6.80
2023-02-25T07:43:44.346Z,6.82
2023-02-25T07:46:13.468Z,7.10
2023-02-25T07:51:18.620Z,8.45
2023-02-25T07:53:48.934Z,9.75
2023-02-25T07:56:18.254Z,9.98
2023-02-25T07:58:46.605Z,8.73
2023-02-25T08:01:31.782Z,8.93
2023-02-25T08:04:06.676Z,8.75
2023-02-25T08:06:41.087Z,8.98
2023-02-25T08:09:14.086Z,8.23
2023-02-25T08:11:41.891Z,8.13
2023-02-25T08:14:09.877Z,8.55
2023-02-25T08:16:37.869Z,9.55
2023-02-25T08:19:06.808Z,8.98
2023-02-25T08:21:34.494Z,10.23
2023-02-25T08:24:02.343Z,9.10
2023-02-25T08:26:29.856Z,9.27
2023-02-25T08:28:58.354Z,7.70
2023-02-25T08:31:26.387Z,7.85
2023-02-25T08:33:55.061Z,7.70
2023-02-25T08:36:29.381Z,7.38
2023-02-25T08:39:00.496Z,7.82
2023-02-25T08:41:29.087Z,8.05
2023-02-25T08:44:00.544Z,7.15
2023-02-25T08:46:31.588Z,7.55
2023-02-25T08:49:00.672Z,6.93
2023-02-25T08:51:34.162Z,7.55
2023-02-25T08:54:09.425Z,8.35
2023-02-25T08:56:38.301Z,8.18
2023-02-25T08:59:06.281Z,8.55
2023-02-25T09:01:45.890Z,7.82
2023-02-25T09:04:15.880Z,7.72
2023-02-25T09:06:44.586Z,8.23
2023-02-25T09:09:13.460Z,7.57
2023-02-25T09:11:42.739Z,8.32
2023-02-25T09:16:39.247Z,9.93
2023-02-25T09:19:07.585Z,9.52
2023-02-25T09:21:36.301Z,9.60
2023-02-25T09:24:04.509Z,10.00
2023-02-25T09:26:32.415Z,10.40
2023-02-25T09:29:05.619Z,9.88
2023-02-25T09:31:34.776Z,10.93
2023-02-25T09:34:09.305Z,10.27
2023-02-25T09:36:37.366Z,9.43
2023-02-25T09:39:10.283Z,10.48
2023-02-25T09:41:55.958Z,9.52
2023-02-25T09:44:36.551Z,10.88
2023-02-25T09:47:23.334Z,10.48
2023-02-25T09:50:02.663Z,11.95
2023-02-25T09:52:40.018Z,10.75
2023-02-25T09:55:36.457Z,10.77
2023-02-25T09:58:46.194Z,11.73
2023-02-25T10:01:27.470Z,13.00
2023-02-25T10:04:24.305Z,11.77
2023-02-25T10:06:53.312Z,13.93
2023-02-25T10:09:50.683Z,14.23
2023-02-25T10:12:33.657Z,15.45
2023-02-25T10:16:04.314Z,12.88
2023-02-25T10:19:08.602Z,11.07
2023-02-25T10:21:45.229Z,12.15
2023-02-25T10:24:47.169Z,11.40
2023-02-25T10:27:41.617Z,12.50
2023-02-25T10:30:23.382Z,14.30
2023-02-25T10:32:51.571Z,12.35
2023-02-25T10:35:27.599Z,13.63
2023-02-25T10:37:55.735Z,13.43
2023-02-25T10:40:29.359Z,14.20
2023-02-25T10:43:20.252Z,13.77
2023-02-25T10:45:58.463Z,14.90
2023-02-25T10:48:26.233Z,16.92
2023-02-25T10:51:16.150Z,18.52
2023-02-25T10:53:59.424Z,17.80
2023-02-25T10:56:47.231Z,18.95
2023-02-25T10:59:30.040Z,18.92
2023-02-25T11:02:00.957Z,19.20
2023-02-25T11:04:37.372Z,18.25
2023-02-25T11:07:43.550Z,18.50
2023-02-25T11:10:20.806Z,18.08
2023-02-25T11:12:54.163Z,19.35
2023-02-25T11:15:43.675Z,18.85
2023-02-25T11:18:31.635Z,20.25
2023-02-25T11:21:09.477Z,19.55
2023-02-25T11:23:47.028Z,20.02
2023-02-25T11:26:39.359Z,19.67
2023-02-25T11:29:23.049Z,19.70
2023-02-25T11:32:16.121Z,20.13
2023-02-25T11:34:52.088Z,20.10
2023-02-25T11:37:45.549Z,22.30
2023-02-25T11:40:30.454Z,22.70
2023-02-25T11:43:06.823Z,22.58
2023-02-25T11:45:39.053Z,20.92
2023-02-25T11:48:41.215Z,22.17
2023-02-25T11:51:33.708Z,20.33
2023-02-25T11:55:12.732Z,19.60
2023-02-25T11:57:40.340Z,18.58
2023-02-25T12:00:40.317Z,15.70
2023-02-25T12:03:36.906Z,13.90
2023-02-25T12:06:04.286Z,10.50
2023-02-25T12:09:05.930Z,9.73
2023-02-25T12:11:54.185Z,11.02
2023-02-25T12:14:58.823Z,8.35
2023-02-25T12:17:38.206Z,5.00
2023-02-25T12:20:50.178Z,1.83
2023-02-25T12:23:56.554Z,1.98
2023-02-25T12:27:20.183Z,2.70
2023-02-25T12:30:08.660Z,1.58
2023-02-25T12:32:59.580Z,1.67
2023-02-25T12:36:04.728Z,1.73
2023-02-25T12:38:53.548Z,2.08
2023-02-25T12:41:46.934Z,1.40
2023-02-25T12:44:42.258Z,1.90
2023-02-25T12:48:02.904Z,1.40
2023-02-25T12:51:01.951Z,0.82
2023-02-25T12:53:46.654Z,0.68
2023-02-25T12:56:33.099Z,1.23
2023-02-25T12:59:34.905Z,0.30
2023-02-25T13:02:34.076Z,0.55
2023-02-25T13:05:48.944Z,0.70
2023-02-25T13:08:47.547Z,0.90
2023-02-25T13:12:09.911Z,0.60
2023-02-25T13:14:36.932Z,0.60
2023-02-25T13:17:47.194Z,0.38
2023-02-25T13:20:44.205Z,0.30
2023-02-25T13:23:51.761Z,1.00
2023-02-25T13:26:44.700Z,1.20
2023-02-25T13:29:35.821Z,1.40
2023-02-25T13:32:50.345Z,1.70
2023-02-25T13:35:56.531Z,1.23
2023-02-25T13:38:28.171Z,1.40
2023-02-25T13:41:55.169Z,2.17
2023-02-25T13:44:29.251Z,0.50
2023-02-25T13:47:17.496Z,0.60
2023-02-25T13:50:06.362Z,0.20
2023-02-25T13:53:13.850Z,1.00
2023-02-25T13:56:15.324Z,0.63
2023-02-25T13:59:12.434Z,0.40
2023-02-25T14:02:17.211Z,0.45
2023-02-25T14:05:23.918Z,0.77
2023-02-25T14:08:23.301Z,0.80
2023-02-25T14:11:11.917Z,0.20
2023-02-25T14:14:18.334Z,0.38
2023-02-25T14:17:22.962Z,0.98
2023-02-25T14:19:59.440Z,1.17
2023-02-25T14:22:38.671Z,0.60
2023-02-25T14:28:26.838Z,0.90
2023-02-25T14:31:13.075Z,0.98
2023-02-25T14:34:28.266Z,0.90
2023-02-25T14:37:34.830Z,0.50
2023-02-25T14:40:18.022Z,1.90
2023-02-25T14:43:15.002Z,2.30
2023-02-25T14:46:04.479Z,1.55
2023-02-25T14:49:17.286Z,2.90
2023-02-25T14:52:53.331Z,1.88
2023-02-25T14:55:32.635Z,0.93
2023-02-25T14:58:36.998Z,1.65
2023-02-25T15:01:38.849Z,5.82
2023-02-25T15:04:39.357Z,3.55
2023-02-25T15:07:21.847Z,4.30
2023-02-25T15:10:26.853Z,2.42
2023-02-25T15:13:01.046Z,1.13
2023-02-25T15:16:07.217Z,1.92
2023-02-25T15:19:20.151Z,1.55
2023-02-25T15:21:49.804Z,1.90
2023-02-25T15:24:38.444Z,1.73
2023-02-25T15:27:36.771Z,1.40
2023-02-25T15:30:10.086Z,1.88
2023-02-25T15:32:51.199Z,1.50
2023-02-25T15:35:35.651Z,2.30
2023-02-25T15:38:18.145Z,2.13
2023-02-25T15:40:53.011Z,2.00
2023-02-25T15:43:23.922Z,2.28
2023-02-25T15:46:23.716Z,6.30
2023-02-25T15:49:28.667Z,5.28
2023-02-25T15:52:05.315Z,4.53
2023-02-25T15:54:32.817Z,3.17
2023-02-25T15:57:05.002Z,1.77
2023-02-25T15:59:57.697Z,0.95
2023-02-25T16:02:33.406Z,0.35
2023-02-25T16:05:09.932Z,0.40
2023-02-25T16:07:44.422Z,0.50
2023-02-25T16:10:47.978Z,0.20
2023-02-25T16:13:33.058Z,1.88
2023-02-25T16:16:04.029Z,1.85
2023-02-25T16:18:45.185Z,3.35
2023-02-25T16:21:25.468Z,1.50
2023-02-25T16:23:54.894Z,3.83
2023-02-25T16:26:50.141Z,1.80
2023-02-25T16:29:20.600Z,1.20
2023-02-25T16:32:20.242Z,0.90
2023-02-25T16:35:03.910Z,0.52
2023-02-25T16:37:43.465Z,1.27
2023-02-25T16:40:36.907Z,0.73
2023-02-25T16:43:05.746Z,0.95
2023-02-25T16:45:54.942Z,1.27
2023-02-25T16:48:32.105Z,3.05
2023-02-25T16:51:11.265Z,3.45
2023-02-25T16:53:48.005Z,2.17
2023-02-25T16:56:23.608Z,0.50
2023-02-25T16:59:20.125Z,0.52
2023-02-25T17:02:01.796Z,0.82
2023-02-25T17:05:12.409Z,1.08
2023-02-25T17:08:05.963Z,0.35
2023-02-25T17:10:43.821Z,1.15
2023-02-25T17:13:21.760Z,0.53
2023-02-25T17:15:51.072Z,1.30
2023-02-25T17:18:33.151Z,1.48
2023-02-25T17:21:35.866Z,1.83
2023-02-25T17:24:11.960Z,2.10
2023-02-25T17:26:49.489Z,2.55
2023-02-25T17:29:18.504Z,2.65
2023-02-25T17:31:55.149Z,1.42
2023-02-25T17:34:35.805Z,1.90
2023-02-25T17:37:08.062Z,1.67
2023-02-25T17:39:36.612Z,2.47
2023-02-25T17:42:32.706Z,2.00
2023-02-25T17:45:03.707Z,1.88
2023-02-25T17:47:35.642Z,1.77
2023-02-25T17:50:31.902Z,2.60
2023-02-25T17:53:00.314Z,3.63
2023-02-25T17:55:37.419Z,12.50
2023-02-25T17:58:05.272Z,3.92
2023-02-25T18:00:36.101Z,2.35
2023-02-25T18:03:12.153Z,2.60
2023-02-25T18:05:55.057Z,2.97
2023-02-25T18:08:26.395Z,3.90
2023-02-25T18:11:21.072Z,3.67
2023-02-25T18:13:48.746Z,2.00
2023-02-25T18:16:38.936Z,1.88
2023-02-25T18:19:35.743Z,2.85
2023-02-25T18:22:24.609Z,1.92
2023-02-25T18:24:59.205Z,2.17
2023-02-25T18:27:33.196Z,2.03
2023-02-25T18:30:18.385Z,2.95
2023-02-25T18:32:47.426Z,2.17
2023-02-25T18:35:16.140Z,2.22
2023-02-25T18:37:47.614Z,1.33
2023-02-25T18:40:50.116Z,0.95
2023-02-25T18:43:21.216Z,0.73
2023-02-25T18:45:49.997Z,1.65
2023-02-25T18:48:17.829Z,1.58
2023-02-25T18:50:45.573Z,6.70
2023-02-25T18:53:23.505Z,3.00
2023-02-25T18:55:53.133Z,1.50
2023-02-25T18:58:22.008Z,2.50
2023-02-25T19:00:57.325Z,4.03
2023-02-25T19:03:43.831Z,5.13
2023-02-25T19:06:11.466Z,2.30
2023-02-25T19:08:39.245Z,2.50
2023-02-25T19:11:24.631Z,1.60
2023-02-25T19:13:53.129Z,1.17
2023-02-25T19:16:21.181Z,0.68
2023-02-25T19:18:49.332Z,14.13
2023-02-25T19:21:27.002Z,4.75
2023-02-25T19:23:55.852Z,3.10
2023-02-25T19:26:23.787Z,2.10
2023-02-25T19:28:52.233Z,3.07
2023-02-25T19:31:21.011Z,1.73
2023-02-25T19:33:49.213Z,2.20
2023-02-25T19:36:16.697Z,1.38
2023-02-25T19:38:44.533Z,1.10
2023-02-25T19:41:14.414Z,1.88
2023-02-25T19:43:42.454Z,1.33
2023-02-25T19:46:10.423Z,0.90
2023-02-25T19:48:38.428Z,0.85
2023-02-25T19:51:08.813Z,0.95
2023-02-25T19:53:38.659Z,1.20
2023-02-25T19:56:08.124Z,1.60
2023-02-25T19:58:36.005Z,1.50
2023-02-25T20:01:06.479Z,1.08
2023-02-25T20:03:36.344Z,0.82
2023-02-25T20:06:13.669Z,0.10
2023-02-25T20:08:42.765Z,0.20
2023-02-25T20:11:12.094Z,0.50
2023-02-25T20:13:40.033Z,0.30
2023-02-25T20:16:09.346Z,0.30
2023-02-25T20:18:37.814Z,0.22
2023-02-25T20:21:06.253Z,0.52
2023-02-25T20:23:34.434Z,2.15
2023-02-25T20:26:15.453Z,1.80
2023-02-25T20:28:43.802Z,0.85
2023-02-25T20:31:20.466Z,0.55
2023-02-25T20:33:56.182Z,0.73
2023-02-25T20:36:31.894Z,0.40
2023-02-25T20:39:23.905Z,0.55
2023-02-25T20:41:51.688Z,0.60
2023-02-25T20:44:19.805Z,0.40
2023-02-25T20:46:47.661Z,0.75
2023-02-25T20:49:19.178Z,0.70
2023-02-25T20:51:48.903Z,0.75
2023-02-25T20:54:18.627Z,1.15
2023-02-25T20:56:47.769Z,0.70
2023-02-25T21:01:45.900Z,0.30
2023-02-25T21:06:41.376Z,0.50
2023-02-25T21:09:09.381Z,0.75
2023-02-25T21:11:36.986Z,0.28
2023-02-25T21:14:09.190Z,0.20
2023-02-25T21:16:38.697Z,0.45
2023-02-25T21:19:07.671Z,0.20
2023-02-25T21:21:37.405Z,0.08
2023-02-25T21:24:10.403Z,0.05
2023-02-25T21:26:41.046Z,0.15
2023-02-25T21:29:10.704Z,0.20
2023-02-25T21:31:39.506Z,0.22
2023-02-25T21:34:09.275Z,0.15
2023-02-25T21:36:38.108Z,0.20
2023-02-25T21:39:07.058Z,0.10
2023-02-25T21:41:36.792Z,0.00
2023-02-25T21:44:05.107Z,0.10
2023-02-25T21:46:39.313Z,0.03
2023-02-25T21:49:07.705Z,0.20
2023-02-25T21:51:35.538Z,0.00
2023-02-25T21:54:03.939Z,0.20
2023-02-25T21:56:32.406Z,0.22
2023-02-25T21:59:05.429Z,0.10
2023-02-25T22:02:28.538Z,0.00
2023-02-25T22:04:56.479Z,0.00
2023-02-25T22:07:24.075Z,0.10
2023-02-25T22:09:52.866Z,0.30
2023-02-25T22:12:20.579Z,0.10
2023-02-25T22:14:48.531Z,0.43
2023-02-25T22:17:16.534Z,0.75
2023-02-25T22:19:44.551Z,0.20
2023-02-25T22:22:14.119Z,0.10
2023-02-25T22:24:42.878Z,0.15
2023-02-25T22:27:10.506Z,0.10
2023-02-25T22:29:38.566Z,0.20
2023-02-25T22:32:06.888Z,0.15
2023-02-25T22:34:35.983Z,0.00
2023-02-25T22:37:03.629Z,0.00
2023-02-25T22:39:31.575Z,0.00
2023-02-25T22:41:59.067Z,0.10
2023-02-25T22:44:29.914Z,0.10
2023-02-25T22:46:57.616Z,0.00
2023-02-25T22:49:25.776Z,0.10
2023-02-25T22:51:53.670Z,0.10
2023-02-25T22:54:21.738Z,0.00
2023-02-25T22:56:49.916Z,0.00
2023-02-25T22:59:19.000Z,0.10
2023-02-25T23:01:46.636Z,0.47
2023-02-25T23:04:14.744Z,0.10
2023-02-25T23:06:45.020Z,0.10
2023-02-25T23:09:14.351Z,0.17
2023-02-25T23:11:44.441Z,0.10
2023-02-25T23:14:13.405Z,0.25
2023-02-25T23:16:46.096Z,0.10
2023-02-25T23:19:18.895Z,0.30
2023-02-25T23:21:47.768Z,0.10
2023-02-25T23:24:19.530Z,0.45
2023-02-25T23:26:50.754Z,0.55
2023-02-25T23:29:18.802Z,0.32
2023-02-25T23:31:48.258Z,0.70
2023-02-25T23:34:23.413Z,0.50
2023-02-25T23:36:54.557Z,1.15
2023-02-25T23:39:23.017Z,2.67
2023-02-25T23:41:50.822Z,5.53
2023-02-25T23:44:18.782Z,4.78
2023-02-25T23:46:46.379Z,4.30
2023-02-25T23:49:16.650Z,3.58
2023-02-25T23:51:47.194Z,4.07
2023-02-25T23:54:21.652Z,5.13
2023-02-25T23:56:50.457Z,4.90
2023-02-25T23:59:18.666Z,4.95
